Angelica, Wisconsin
Current Conditions -  °F | °C
As of 2:53 PM on Thursday 23 Oct 2014 (Local Time) from KGRB Reporting Station
Light Rain Light Rain  
Wind Chill: 11°   Ceiling: 8000
Heat Index: 11°   Visibility: 5mi
Dew Point:   Wind: 3mph
Humidity: 80%   Direction: 230°SW
Pressure: 30.06"   Gusts: NA
Location:  44.6594°N, 88.2945°W
Report Text: KGRB 231953Z 23003KT 5SM -RA FEW050 OVC080 11/08 A3006 RMK AO2 SLP185 P0001 T01110078
Loading
Personal Weather Stations






























Interactive Weather Map
Tropical Storm Tracking
New forecast layout! Learn more

10-Day Weather Forecast

Advertisements
Track Severe Weather on mobile